sensor_id;sensor_type;location;lat;lon;timestamp;temperature;humidity
2100;DHT22;1055;48.854;9.302;2024-03-08T00:00:05;4.70;99.90
2100;DHT22;1055;48.854;9.302;2024-03-08T00:02:41;4.60;99.90
2100;DHT22;1055;48.854;9.302;2024-03-08T00:05:08;4.50;99.90
2100;DHT22;1055;48.854;9.302;2024-03-08T00:07:38;4.60;99.90
2100;DHT22;1055;48.854;9.302;2024-03-08T00:10:04;4.80;99.90
2100;DHT22;1055;48.854;9.302;2024-03-08T00:12:30;4.80;99.90
2100;DHT22;1055;48.854;9.302;2024-03-08T00:14:56;4.60;99.90
2100;DHT22;1055;48.854;9.302;2024-03-08T00:17:21;4.50;99.90
2100;DHT22;1055;48.854;9.302;2024-03-08T00:20:06;4.60;99.90
2100;DHT22;1055;48.854;9.302;2024-03-08T00:22:34;4.60;99.90
2100;DHT22;1055;48.854;9.302;2024-03-08T00:25:00;4.70;99.90
2100;DHT22;1055;48.854;9.302;2024-03-08T00:27:25;4.50;99.90
2100;DHT22;1055;48.854;9.302;2024-03-08T00:29:51;4.50;99.90
2100;DHT22;1055;48.854;9.302;2024-03-08T00:32:16;4.70;99.90
2100;DHT22;1055;48.854;9.302;2024-03-08T00:34:42;4.50;99.90
2100;DHT22;1055;48.854;9.302;2024-03-08T00:37:08;4.40;99.90
2100;DHT22;1055;48.854;9.302;2024-03-08T00:39:34;4.00;99.90
2100;DHT22;1055;48.854;9.302;2024-03-08T00:41:59;4.00;99.90
2100;DHT22;1055;48.854;9.302;2024-03-08T00:44:25;4.00;99.90
2100;DHT22;1055;48.854;9.302;2024-03-08T00:46:50;4.00;99.90
2100;DHT22;1055;48.854;9.302;2024-03-08T00:49:17;4.30;99.90
2100;DHT22;1055;48.854;9.302;2024-03-08T00:51:42;4.00;99.90
2100;DHT22;1055;48.854;9.302;2024-03-08T00:54:09;4.30;99.90
2100;DHT22;1055;48.854;9.302;2024-03-08T00:56:34;4.40;99.90
2100;DHT22;1055;48.854;9.302;2024-03-08T00:59:01;4.50;99.90
2100;DHT22;1055;48.854;9.302;2024-03-08T01:01:28;4.40;99.90
2100;DHT22;1055;48.854;9.302;2024-03-08T01:03:54;4.20;99.90
2100;DHT22;1055;48.854;9.302;2024-03-08T01:06:19;4.30;99.90
2100;DHT22;1055;48.854;9.302;2024-03-08T01:08:45;4.00;99.90
2100;DHT22;1055;48.854;9.302;2024-03-08T01:11:13;4.20;99.90
2100;DHT22;1055;48.854;9.302;2024-03-08T01:13:39;4.30;99.90
2100;DHT22;1055;48.854;9.302;2024-03-08T01:16:05;3.80;99.90
2100;DHT22;1055;48.854;9.302;2024-03-08T01:18:31;4.10;99.90
2100;DHT22;1055;48.854;9.302;2024-03-08T01:20:57;4.20;99.90
2100;DHT22;1055;48.854;9.302;2024-03-08T01:23:23;4.00;99.90
2100;DHT22;1055;48.854;9.302;2024-03-08T01:25:49;4.10;99.90
2100;DHT22;1055;48.854;9.302;2024-03-08T01:28:23;4.10;99.90
2100;DHT22;1055;48.854;9.302;2024-03-08T01:30:48;4.00;99.90
2100;DHT22;1055;48.854;9.302;2024-03-08T01:33:15;3.80;99.90
2100;DHT22;1055;48.854;9.302;2024-03-08T01:35:41;4.10;99.90
2100;DHT22;1055;48.854;9.302;2024-03-08T01:38:06;4.00;99.90
2100;DHT22;1055;48.854;9.302;2024-03-08T01:40:32;4.30;99.90
2100;DHT22;1055;48.854;9.302;2024-03-08T01:43:20;4.40;99.90
2100;DHT22;1055;48.854;9.302;2024-03-08T01:45:47;4.30;99.90
2100;DHT22;1055;48.854;9.302;2024-03-08T01:48:14;4.40;99.90
2100;DHT22;1055;48.854;9.302;2024-03-08T01:50:40;4.40;99.90
2100;DHT22;1055;48.854;9.302;2024-03-08T01:53:07;4.40;99.90
2100;DHT22;1055;48.854;9.302;2024-03-08T01:55:35;4.10;99.90
2100;DHT22;1055;48.854;9.302;2024-03-08T01:58:03;4.10;99.90
2100;DHT22;1055;48.854;9.302;2024-03-08T02:00:30;4.10;99.90
2100;DHT22;1055;48.854;9.302;2024-03-08T02:02:56;4.00;99.90
2100;DHT22;1055;48.854;9.302;2024-03-08T02:05:23;3.90;99.90
2100;DHT22;1055;48.854;9.302;2024-03-08T02:07:49;3.80;99.90
2100;DHT22;1055;48.854;9.302;2024-03-08T02:10:14;4.00;99.90
2100;DHT22;1055;48.854;9.302;2024-03-08T02:12:40;4.00;99.90
2100;DHT22;1055;48.854;9.302;2024-03-08T02:15:06;3.80;99.90
2100;DHT22;1055;48.854;9.302;2024-03-08T02:17:32;3.90;99.90
2100;DHT22;1055;48.854;9.302;2024-03-08T02:19:59;3.80;99.90
2100;DHT22;1055;48.854;9.302;2024-03-08T02:22:27;3.80;99.90
2100;DHT22;1055;48.854;9.302;2024-03-08T02:24:54;3.90;99.90
2100;DHT22;1055;48.854;9.302;2024-03-08T02:27:26;3.90;99.90
2100;DHT22;1055;48.854;9.302;2024-03-08T02:29:54;4.00;99.90
2100;DHT22;1055;48.854;9.302;2024-03-08T02:32:24;4.10;99.90
2100;DHT22;1055;48.854;9.302;2024-03-08T02:34:49;3.80;99.90
2100;DHT22;1055;48.854;9.302;2024-03-08T02:37:18;3.70;99.90
2100;DHT22;1055;48.854;9.302;2024-03-08T02:39:44;3.60;99.90
2100;DHT22;1055;48.854;9.302;2024-03-08T02:42:09;3.70;99.90
2100;DHT22;1055;48.854;9.302;2024-03-08T02:44:35;3.70;99.90
2100;DHT22;1055;48.854;9.302;2024-03-08T02:47:00;3.70;99.90
2100;DHT22;1055;48.854;9.302;2024-03-08T02:49:26;3.80;99.90
2100;DHT22;1055;48.854;9.302;2024-03-08T02:51:53;3.70;99.90
2100;DHT22;1055;48.854;9.302;2024-03-08T02:54:19;3.70;99.90
2100;DHT22;1055;48.854;9.302;2024-03-08T02:56:45;3.70;99.90
2100;DHT22;1055;48.854;9.302;2024-03-08T02:59:15;3.70;99.90
2100;DHT22;1055;48.854;9.302;2024-03-08T03:01:43;3.70;99.90
2100;DHT22;1055;48.854;9.302;2024-03-08T03:04:09;3.60;99.90
2100;DHT22;1055;48.854;9.302;2024-03-08T03:06:34;2.90;99.90
2100;DHT22;1055;48.854;9.302;2024-03-08T03:09:01;3.00;99.90
2100;DHT22;1055;48.854;9.302;2024-03-08T03:11:26;3.30;99.90
2100;DHT22;1055;48.854;9.302;2024-03-08T03:13:52;3.40;99.90
2100;DHT22;1055;48.854;9.302;2024-03-08T03:16:19;3.20;99.90
2100;DHT22;1055;48.854;9.302;2024-03-08T03:18:48;2.90;99.90
2100;DHT22;1055;48.854;9.302;2024-03-08T03:21:14;3.00;99.90
2100;DHT22;1055;48.854;9.302;2024-03-08T03:23:40;3.10;99.90
2100;DHT22;1055;48.854;9.302;2024-03-08T03:26:08;3.20;99.90
2100;DHT22;1055;48.854;9.302;2024-03-08T03:28:33;3.20;99.90
2100;DHT22;1055;48.854;9.302;2024-03-08T03:30:59;3.30;99.90
2100;DHT22;1055;48.854;9.302;2024-03-08T03:33:25;3.10;99.90
2100;DHT22;1055;48.854;9.302;2024-03-08T03:35:51;3.00;99.90
2100;DHT22;1055;48.854;9.302;2024-03-08T03:38:17;3.00;99.90
2100;DHT22;1055;48.854;9.302;2024-03-08T03:40:45;3.10;99.90
2100;DHT22;1055;48.854;9.302;2024-03-08T03:43:11;3.20;99.90
2100;DHT22;1055;48.854;9.302;2024-03-08T03:45:37;2.90;99.90
2100;DHT22;1055;48.854;9.302;2024-03-08T03:48:03;2.90;99.90
2100;DHT22;1055;48.854;9.302;2024-03-08T03:50:29;3.00;99.90
2100;DHT22;1055;48.854;9.302;2024-03-08T03:52:55;3.20;99.90
2100;DHT22;1055;48.854;9.302;2024-03-08T03:55:21;3.00;99.90
2100;DHT22;1055;48.854;9.302;2024-03-08T03:57:47;3.20;99.90
2100;DHT22;1055;48.854;9.302;2024-03-08T04:00:13;2.90;99.90
2100;DHT22;1055;48.854;9.302;2024-03-08T04:02:39;2.80;99.90
2100;DHT22;1055;48.854;9.302;2024-03-08T04:05:06;2.70;99.90
2100;DHT22;1055;48.854;9.302;2024-03-08T04:07:32;2.90;99.90
2100;DHT22;1055;48.854;9.302;2024-03-08T04:09:58;2.50;99.90
2100;DHT22;1055;48.854;9.302;2024-03-08T04:12:23;2.90;99.90
2100;DHT22;1055;48.854;9.302;2024-03-08T04:14:49;3.10;99.90
2100;DHT22;1055;48.854;9.302;2024-03-08T04:17:15;3.20;99.90
2100;DHT22;1055;48.854;9.302;2024-03-08T04:19:40;3.20;99.90
2100;DHT22;1055;48.854;9.302;2024-03-08T04:22:06;3.20;99.90
2100;DHT22;1055;48.854;9.302;2024-03-08T04:24:33;3.30;99.90
2100;DHT22;1055;48.854;9.302;2024-03-08T04:26:58;3.10;99.90
2100;DHT22;1055;48.854;9.302;2024-03-08T04:29:24;2.90;99.90
2100;DHT22;1055;48.854;9.302;2024-03-08T04:31:50;3.00;99.90
2100;DHT22;1055;48.854;9.302;2024-03-08T04:34:22;2.70;99.90
2100;DHT22;1055;48.854;9.302;2024-03-08T04:36:48;2.70;99.90
2100;DHT22;1055;48.854;9.302;2024-03-08T04:39:14;2.70;99.90
2100;DHT22;1055;48.854;9.302;2024-03-08T04:41:44;2.50;99.90
2100;DHT22;1055;48.854;9.302;2024-03-08T04:44:11;2.60;99.90
2100;DHT22;1055;48.854;9.302;2024-03-08T04:46:38;2.90;99.90
2100;DHT22;1055;48.854;9.302;2024-03-08T04:49:03;3.40;99.90
2100;DHT22;1055;48.854;9.302;2024-03-08T04:51:29;3.70;99.90
2100;DHT22;1055;48.854;9.302;2024-03-08T04:53:55;3.30;99.90
2100;DHT22;1055;48.854;9.302;2024-03-08T04:56:20;3.40;99.90
2100;DHT22;1055;48.854;9.302;2024-03-08T04:58:46;3.50;99.90
2100;DHT22;1055;48.854;9.302;2024-03-08T05:01:12;3.30;99.90
2100;DHT22;1055;48.854;9.302;2024-03-08T05:03:38;3.50;99.90
2100;DHT22;1055;48.854;9.302;2024-03-08T05:06:04;3.50;99.90
2100;DHT22;1055;48.854;9.302;2024-03-08T05:08:30;3.50;99.90
2100;DHT22;1055;48.854;9.302;2024-03-08T05:10:56;3.50;99.90
2100;DHT22;1055;48.854;9.302;2024-03-08T05:13:21;3.60;99.90
2100;DHT22;1055;48.854;9.302;2024-03-08T05:15:49;3.60;99.90
2100;DHT22;1055;48.854;9.302;2024-03-08T05:18:15;3.40;99.90
2100;DHT22;1055;48.854;9.302;2024-03-08T05:20:41;3.30;99.90
2100;DHT22;1055;48.854;9.302;2024-03-08T05:23:07;3.40;99.90
2100;DHT22;1055;48.854;9.302;2024-03-08T05:25:33;3.10;99.90
2100;DHT22;1055;48.854;9.302;2024-03-08T05:27:59;3.20;99.90
2100;DHT22;1055;48.854;9.302;2024-03-08T05:30:24;3.00;99.90
2100;DHT22;1055;48.854;9.302;2024-03-08T05:32:50;3.10;99.90
2100;DHT22;1055;48.854;9.302;2024-03-08T05:35:15;3.10;99.90
2100;DHT22;1055;48.854;9.302;2024-03-08T05:37:41;3.10;99.90
2100;DHT22;1055;48.854;9.302;2024-03-08T05:40:08;3.10;99.90
2100;DHT22;1055;48.854;9.302;2024-03-08T05:42:36;3.20;99.90
2100;DHT22;1055;48.854;9.302;2024-03-08T05:45:05;3.00;99.90
2100;DHT22;1055;48.854;9.302;2024-03-08T05:47:36;3.00;99.90
2100;DHT22;1055;48.854;9.302;2024-03-08T05:50:02;3.00;99.90
2100;DHT22;1055;48.854;9.302;2024-03-08T05:52:27;2.70;99.90
2100;DHT22;1055;48.854;9.302;2024-03-08T05:54:53;2.60;99.90
2100;DHT22;1055;48.854;9.302;2024-03-08T05:57:19;2.70;99.90
2100;DHT22;1055;48.854;9.302;2024-03-08T05:59:44;2.80;99.90
2100;DHT22;1055;48.854;9.302;2024-03-08T06:02:10;2.90;99.90
2100;DHT22;1055;48.854;9.302;2024-03-08T06:04:35;3.00;99.90
2100;DHT22;1055;48.854;9.302;2024-03-08T06:07:01;2.90;99.90
2100;DHT22;1055;48.854;9.302;2024-03-08T06:09:28;3.00;99.90
2100;DHT22;1055;48.854;9.302;2024-03-08T06:11:54;3.00;99.90
2100;DHT22;1055;48.854;9.302;2024-03-08T06:14:20;3.10;99.90
2100;DHT22;1055;48.854;9.302;2024-03-08T06:16:46;2.70;99.90
2100;DHT22;1055;48.854;9.302;2024-03-08T06:19:13;3.00;99.90
2100;DHT22;1055;48.854;9.302;2024-03-08T06:21:38;2.90;99.90
2100;DHT22;1055;48.854;9.302;2024-03-08T06:24:05;2.90;99.90
2100;DHT22;1055;48.854;9.302;2024-03-08T06:26:30;2.80;99.90
2100;DHT22;1055;48.854;9.302;2024-03-08T06:28:56;3.20;99.90
2100;DHT22;1055;48.854;9.302;2024-03-08T06:31:22;2.80;99.90
2100;DHT22;1055;48.854;9.302;2024-03-08T06:33:48;2.70;99.90
2100;DHT22;1055;48.854;9.302;2024-03-08T06:36:19;2.60;99.90
2100;DHT22;1055;48.854;9.302;2024-03-08T06:38:47;2.60;99.90
2100;DHT22;1055;48.854;9.302;2024-03-08T06:41:13;2.70;99.90
2100;DHT22;1055;48.854;9.302;2024-03-08T06:43:44;2.60;99.90
2100;DHT22;1055;48.854;9.302;2024-03-08T06:46:10;2.90;99.90
2100;DHT22;1055;48.854;9.302;2024-03-08T06:48:38;3.00;99.90
2100;DHT22;1055;48.854;9.302;2024-03-08T06:51:04;3.20;99.90
2100;DHT22;1055;48.854;9.302;2024-03-08T06:53:30;3.30;99.90
2100;DHT22;1055;48.854;9.302;2024-03-08T06:55:56;3.30;99.90
2100;DHT22;1055;48.854;9.302;2024-03-08T06:58:22;3.30;99.90
2100;DHT22;1055;48.854;9.302;2024-03-08T07:00:48;3.20;99.90
2100;DHT22;1055;48.854;9.302;2024-03-08T07:03:17;2.90;99.90
2100;DHT22;1055;48.854;9.302;2024-03-08T07:05:43;3.30;99.90
2100;DHT22;1055;48.854;9.302;2024-03-08T07:08:08;3.40;99.90
2100;DHT22;1055;48.854;9.302;2024-03-08T07:10:34;3.10;99.90
2100;DHT22;1055;48.854;9.302;2024-03-08T07:13:00;3.20;99.90
2100;DHT22;1055;48.854;9.302;2024-03-08T07:15:27;3.50;99.90
2100;DHT22;1055;48.854;9.302;2024-03-08T07:17:54;3.40;99.90
2100;DHT22;1055;48.854;9.302;2024-03-08T07:20:20;3.40;99.90
2100;DHT22;1055;48.854;9.302;2024-03-08T07:22:46;3.50;99.90
2100;DHT22;1055;48.854;9.302;2024-03-08T07:25:16;3.40;99.90
2100;DHT22;1055;48.854;9.302;2024-03-08T07:27:51;3.30;99.90
2100;DHT22;1055;48.854;9.302;2024-03-08T07:30:17;3.30;99.90
2100;DHT22;1055;48.854;9.302;2024-03-08T07:33:01;3.40;99.90
2100;DHT22;1055;48.854;9.302;2024-03-08T07:35:28;3.30;99.90
2100;DHT22;1055;48.854;9.302;2024-03-08T07:37:54;3.40;99.90
2100;DHT22;1055;48.854;9.302;2024-03-08T07:40:23;3.60;99.90
2100;DHT22;1055;48.854;9.302;2024-03-08T07:42:49;3.50;99.90
2100;DHT22;1055;48.854;9.302;2024-03-08T07:45:15;3.50;99.90
2100;DHT22;1055;48.854;9.302;2024-03-08T07:47:41;3.50;99.90
2100;DHT22;1055;48.854;9.302;2024-03-08T07:50:07;3.50;99.90
2100;DHT22;1055;48.854;9.302;2024-03-08T07:52:36;3.70;99.90
2100;DHT22;1055;48.854;9.302;2024-03-08T07:55:05;3.80;99.90
2100;DHT22;1055;48.854;9.302;2024-03-08T07:57:31;3.90;99.90
2100;DHT22;1055;48.854;9.302;2024-03-08T07:59:57;4.10;99.90
2100;DHT22;1055;48.854;9.302;2024-03-08T08:02:23;3.80;99.90
2100;DHT22;1055;48.854;9.302;2024-03-08T08:04:48;3.90;99.90
2100;DHT22;1055;48.854;9.302;2024-03-08T08:07:14;4.10;99.90
2100;DHT22;1055;48.854;9.302;2024-03-08T08:09:40;4.20;99.90
2100;DHT22;1055;48.854;9.302;2024-03-08T08:12:08;4.40;99.90
2100;DHT22;1055;48.854;9.302;2024-03-08T08:14:37;4.40;99.90
2100;DHT22;1055;48.854;9.302;2024-03-08T08:17:03;4.60;99.90
2100;DHT22;1055;48.854;9.302;2024-03-08T08:19:30;4.60;99.90
2100;DHT22;1055;48.854;9.302;2024-03-08T08:21:57;4.40;99.90
2100;DHT22;1055;48.854;9.302;2024-03-08T08:24:23;4.80;99.90
2100;DHT22;1055;48.854;9.302;2024-03-08T08:26:48;4.90;99.90
2100;DHT22;1055;48.854;9.302;2024-03-08T08:29:14;5.00;99.90
2100;DHT22;1055;48.854;9.302;2024-03-08T08:31:40;4.90;99.90
2100;DHT22;1055;48.854;9.302;2024-03-08T08:34:05;5.00;99.90
2100;DHT22;1055;48.854;9.302;2024-03-08T08:36:32;5.10;99.90
2100;DHT22;1055;48.854;9.302;2024-03-08T08:38:57;5.00;99.90
2100;DHT22;1055;48.854;9.302;2024-03-08T08:41:24;4.30;99.90
2100;DHT22;1055;48.854;9.302;2024-03-08T08:43:50;4.60;99.90
2100;DHT22;1055;48.854;9.302;2024-03-08T08:46:19;4.20;99.90
2100;DHT22;1055;48.854;9.302;2024-03-08T08:48:45;4.20;99.90
2100;DHT22;1055;48.854;9.302;2024-03-08T08:51:12;4.50;99.90
2100;DHT22;1055;48.854;9.302;2024-03-08T08:53:41;4.70;99.90
2100;DHT22;1055;48.854;9.302;2024-03-08T08:56:12;4.30;99.90
2100;DHT22;1055;48.854;9.302;2024-03-08T08:58:43;5.00;99.90
2100;DHT22;1055;48.854;9.302;2024-03-08T09:01:09;5.00;99.90
2100;DHT22;1055;48.854;9.302;2024-03-08T09:03:36;4.60;99.90
2100;DHT22;1055;48.854;9.302;2024-03-08T09:06:05;4.70;99.90
2100;DHT22;1055;48.854;9.302;2024-03-08T09:08:35;4.70;99.90
2100;DHT22;1055;48.854;9.302;2024-03-08T09:11:01;4.80;99.90
2100;DHT22;1055;48.854;9.302;2024-03-08T09:13:26;4.70;99.90
2100;DHT22;1055;48.854;9.302;2024-03-08T09:15:52;4.70;99.90
2100;DHT22;1055;48.854;9.302;2024-03-08T09:18:18;4.50;99.90
2100;DHT22;1055;48.854;9.302;2024-03-08T09:20:44;4.60;99.90
2100;DHT22;1055;48.854;9.302;2024-03-08T09:23:10;4.70;99.90
2100;DHT22;1055;48.854;9.302;2024-03-08T09:25:36;4.80;99.90
2100;DHT22;1055;48.854;9.302;2024-03-08T09:28:01;5.20;99.90
2100;DHT22;1055;48.854;9.302;2024-03-08T09:30:27;5.20;99.90
2100;DHT22;1055;48.854;9.302;2024-03-08T09:32:52;4.80;99.90
2100;DHT22;1055;48.854;9.302;2024-03-08T09:35:19;4.70;99.90
2100;DHT22;1055;48.854;9.302;2024-03-08T09:37:45;4.90;99.90
2100;DHT22;1055;48.854;9.302;2024-03-08T09:40:13;4.50;99.90
2100;DHT22;1055;48.854;9.302;2024-03-08T09:42:41;4.70;99.90
2100;DHT22;1055;48.854;9.302;2024-03-08T09:45:11;5.00;99.90
2100;DHT22;1055;48.854;9.302;2024-03-08T09:47:39;4.80;99.90
2100;DHT22;1055;48.854;9.302;2024-03-08T09:50:07;4.90;99.90
2100;DHT22;1055;48.854;9.302;2024-03-08T09:52:41;5.00;99.90
2100;DHT22;1055;48.854;9.302;2024-03-08T09:55:09;5.40;99.90
2100;DHT22;1055;48.854;9.302;2024-03-08T09:57:37;5.50;99.90
2100;DHT22;1055;48.854;9.302;2024-03-08T10:00:04;5.60;99.90
2100;DHT22;1055;48.854;9.302;2024-03-08T10:02:50;5.70;99.90
2100;DHT22;1055;48.854;9.302;2024-03-08T10:05:18;5.80;99.90
2100;DHT22;1055;48.854;9.302;2024-03-08T10:07:44;5.50;99.90
2100;DHT22;1055;48.854;9.302;2024-03-08T10:10:09;5.70;99.90
2100;DHT22;1055;48.854;9.302;2024-03-08T10:12:38;5.50;99.90
2100;DHT22;1055;48.854;9.302;2024-03-08T10:15:07;5.30;99.90
2100;DHT22;1055;48.854;9.302;2024-03-08T10:17:37;5.50;99.90
2100;DHT22;1055;48.854;9.302;2024-03-08T10:20:03;5.40;99.90
2100;DHT22;1055;48.854;9.302;2024-03-08T10:22:30;5.30;99.90
2100;DHT22;1055;48.854;9.302;2024-03-08T10:24:57;5.60;99.90
2100;DHT22;1055;48.854;9.302;2024-03-08T10:27:22;5.40;99.90
2100;DHT22;1055;48.854;9.302;2024-03-08T10:29:48;5.60;99.90
2100;DHT22;1055;48.854;9.302;2024-03-08T10:32:15;6.10;99.90
2100;DHT22;1055;48.854;9.302;2024-03-08T10:34:41;5.60;99.90
2100;DHT22;1055;48.854;9.302;2024-03-08T10:37:07;6.10;99.90
2100;DHT22;1055;48.854;9.302;2024-03-08T10:39:37;6.00;99.90
2100;DHT22;1055;48.854;9.302;2024-03-08T10:42:05;6.20;99.90
2100;DHT22;1055;48.854;9.302;2024-03-08T10:44:43;6.10;99.90
2100;DHT22;1055;48.854;9.302;2024-03-08T10:47:25;6.40;99.90
2100;DHT22;1055;48.854;9.302;2024-03-08T10:49:54;6.10;99.90
2100;DHT22;1055;48.854;9.302;2024-03-08T10:52:21;6.30;99.90
2100;DHT22;1055;48.854;9.302;2024-03-08T10:54:48;6.30;99.90
2100;DHT22;1055;48.854;9.302;2024-03-08T10:57:17;6.40;99.90
2100;DHT22;1055;48.854;9.302;2024-03-08T10:59:45;6.40;99.90
2100;DHT22;1055;48.854;9.302;2024-03-08T11:02:16;6.60;99.90
2100;DHT22;1055;48.854;9.302;2024-03-08T11:04:47;6.90;99.90
2100;DHT22;1055;48.854;9.302;2024-03-08T11:07:14;6.60;99.90
2100;DHT22;1055;48.854;9.302;2024-03-08T11:09:42;6.40;99.90
2100;DHT22;1055;48.854;9.302;2024-03-08T11:14:46;6.90;99.90
2100;DHT22;1055;48.854;9.302;2024-03-08T11:17:14;6.90;99.90
2100;DHT22;1055;48.854;9.302;2024-03-08T11:19:46;6.60;99.90
2100;DHT22;1055;48.854;9.302;2024-03-08T11:22:21;6.50;99.90
2100;DHT22;1055;48.854;9.302;2024-03-08T11:24:49;6.80;99.90
2100;DHT22;1055;48.854;9.302;2024-03-08T11:27:15;6.90;99.90
2100;DHT22;1055;48.854;9.302;2024-03-08T11:29:40;6.80;99.90
2100;DHT22;1055;48.854;9.302;2024-03-08T11:32:14;6.70;99.90
2100;DHT22;1055;48.854;9.302;2024-03-08T11:34:43;7.00;99.90
2100;DHT22;1055;48.854;9.302;2024-03-08T11:37:18;7.20;99.90
2100;DHT22;1055;48.854;9.302;2024-03-08T11:39:47;7.40;99.90
2100;DHT22;1055;48.854;9.302;2024-03-08T11:42:17;7.40;99.90
2100;DHT22;1055;48.854;9.302;2024-03-08T11:44:46;7.30;99.90
2100;DHT22;1055;48.854;9.302;2024-03-08T11:47:14;7.30;99.90
2100;DHT22;1055;48.854;9.302;2024-03-08T11:49:40;7.50;99.90
2100;DHT22;1055;48.854;9.302;2024-03-08T11:52:14;7.60;99.90
2100;DHT22;1055;48.854;9.302;2024-03-08T11:54:51;7.90;99.90
2100;DHT22;1055;48.854;9.302;2024-03-08T11:57:22;8.10;99.90
2100;DHT22;1055;48.854;9.302;2024-03-08T11:59:52;8.00;99.90
2100;DHT22;1055;48.854;9.302;2024-03-08T12:02:19;7.80;99.90
2100;DHT22;1055;48.854;9.302;2024-03-08T12:04:45;8.10;99.90
2100;DHT22;1055;48.854;9.302;2024-03-08T12:07:13;7.40;99.90
2100;DHT22;1055;48.854;9.302;2024-03-08T12:09:42;7.70;99.90
2100;DHT22;1055;48.854;9.302;2024-03-08T12:12:11;7.80;99.90
2100;DHT22;1055;48.854;9.302;2024-03-08T12:14:38;8.10;99.90
2100;DHT22;1055;48.854;9.302;2024-03-08T12:17:04;8.30;99.90
2100;DHT22;1055;48.854;9.302;2024-03-08T12:19:30;8.40;99.90
2100;DHT22;1055;48.854;9.302;2024-03-08T12:21:56;8.50;99.90
2100;DHT22;1055;48.854;9.302;2024-03-08T12:24:22;8.30;99.90
2100;DHT22;1055;48.854;9.302;2024-03-08T12:26:48;8.60;99.90
2100;DHT22;1055;48.854;9.302;2024-03-08T12:29:19;8.70;99.90
2100;DHT22;1055;48.854;9.302;2024-03-08T12:31:51;9.00;99.90
2100;DHT22;1055;48.854;9.302;2024-03-08T12:34:20;9.40;99.90
2100;DHT22;1055;48.854;9.302;2024-03-08T12:36:50;8.80;99.90
2100;DHT22;1055;48.854;9.302;2024-03-08T12:39:19;9.10;99.90
2100;DHT22;1055;48.854;9.302;2024-03-08T12:41:55;9.20;99.90
2100;DHT22;1055;48.854;9.302;2024-03-08T12:44:22;9.20;99.90
2100;DHT22;1055;48.854;9.302;2024-03-08T12:46:48;9.60;99.90
2100;DHT22;1055;48.854;9.302;2024-03-08T12:49:14;9.60;99.90
2100;DHT22;1055;48.854;9.302;2024-03-08T12:51:45;9.50;99.90
2100;DHT22;1055;48.854;9.302;2024-03-08T12:54:11;10.00;99.90
2100;DHT22;1055;48.854;9.302;2024-03-08T12:56:37;10.30;99.90
2100;DHT22;1055;48.854;9.302;2024-03-08T12:59:04;10.50;99.90
2100;DHT22;1055;48.854;9.302;2024-03-08T13:01:31;10.50;99.90
2100;DHT22;1055;48.854;9.302;2024-03-08T13:04:00;10.20;99.90
2100;DHT22;1055;48.854;9.302;2024-03-08T13:06:28;10.20;99.90
2100;DHT22;1055;48.854;9.302;2024-03-08T13:08:54;10.20;99.90
2100;DHT22;1055;48.854;9.302;2024-03-08T13:11:21;10.90;99.90
2100;DHT22;1055;48.854;9.302;2024-03-08T13:13:47;11.50;99.90
2100;DHT22;1055;48.854;9.302;2024-03-08T13:16:13;11.40;99.90
2100;DHT22;1055;48.854;9.302;2024-03-08T13:18:42;11.80;99.90
2100;DHT22;1055;48.854;9.302;2024-03-08T13:21:08;12.10;99.90
2100;DHT22;1055;48.854;9.302;2024-03-08T13:23:35;12.40;99.90
2100;DHT22;1055;48.854;9.302;2024-03-08T13:26:10;12.00;99.90
2100;DHT22;1055;48.854;9.302;2024-03-08T13:28:43;12.00;99.90
2100;DHT22;1055;48.854;9.302;2024-03-08T13:31:09;11.50;99.90
2100;DHT22;1055;48.854;9.302;2024-03-08T13:33:38;12.00;99.90
2100;DHT22;1055;48.854;9.302;2024-03-08T13:36:08;13.00;99.90
2100;DHT22;1055;48.854;9.302;2024-03-08T13:38:44;12.50;99.90
2100;DHT22;1055;48.854;9.302;2024-03-08T13:41:14;12.50;99.90
2100;DHT22;1055;48.854;9.302;2024-03-08T13:43:41;13.10;99.80
2100;DHT22;1055;48.854;9.302;2024-03-08T13:46:07;13.30;98.30
2100;DHT22;1055;48.854;9.302;2024-03-08T13:48:33;13.80;97.80
2100;DHT22;1055;48.854;9.302;2024-03-08T13:50:59;13.90;96.20
2100;DHT22;1055;48.854;9.302;2024-03-08T13:53:26;14.00;94.90
2100;DHT22;1055;48.854;9.302;2024-03-08T13:55:51;14.00;93.90
2100;DHT22;1055;48.854;9.302;2024-03-08T13:58:17;14.40;94.00
2100;DHT22;1055;48.854;9.302;2024-03-08T14:00:43;14.60;94.40
2100;DHT22;1055;48.854;9.302;2024-03-08T14:03:11;14.60;93.20
2100;DHT22;1055;48.854;9.302;2024-03-08T14:05:41;14.90;92.90
2100;DHT22;1055;48.854;9.302;2024-03-08T14:08:08;15.10;90.90
2100;DHT22;1055;48.854;9.302;2024-03-08T14:10:34;13.40;91.80
2100;DHT22;1055;48.854;9.302;2024-03-08T14:13:00;14.50;93.20
2100;DHT22;1055;48.854;9.302;2024-03-08T14:15:32;14.70;92.40
2100;DHT22;1055;48.854;9.302;2024-03-08T14:17:58;15.40;92.10
2100;DHT22;1055;48.854;9.302;2024-03-08T14:20:25;15.40;91.40
2100;DHT22;1055;48.854;9.302;2024-03-08T14:22:54;15.70;90.80
2100;DHT22;1055;48.854;9.302;2024-03-08T14:25:20;15.60;90.40
2100;DHT22;1055;48.854;9.302;2024-03-08T14:27:50;14.10;87.80
2100;DHT22;1055;48.854;9.302;2024-03-08T14:30:17;13.80;90.20
2100;DHT22;1055;48.854;9.302;2024-03-08T14:32:58;14.60;89.50
2100;DHT22;1055;48.854;9.302;2024-03-08T14:35:25;15.20;89.80
2100;DHT22;1055;48.854;9.302;2024-03-08T14:37:51;15.40;89.80
2100;DHT22;1055;48.854;9.302;2024-03-08T14:40:17;14.30;88.60
2100;DHT22;1055;48.854;9.302;2024-03-08T14:42:50;15.00;90.10
2100;DHT22;1055;48.854;9.302;2024-03-08T14:45:16;15.20;89.80
2100;DHT22;1055;48.854;9.302;2024-03-08T14:47:48;15.50;90.90
2100;DHT22;1055;48.854;9.302;2024-03-08T14:50:16;14.30;90.40
2100;DHT22;1055;48.854;9.302;2024-03-08T14:52:42;14.60;91.20
2100;DHT22;1055;48.854;9.302;2024-03-08T14:55:08;14.60;88.60
2100;DHT22;1055;48.854;9.302;2024-03-08T14:57:35;14.80;88.50
2100;DHT22;1055;48.854;9.302;2024-03-08T15:00:01;14.90;88.30
2100;DHT22;1055;48.854;9.302;2024-03-08T15:02:31;14.50;89.10
2100;DHT22;1055;48.854;9.302;2024-03-08T15:04:59;13.90;89.60
2100;DHT22;1055;48.854;9.302;2024-03-08T15:07:27;13.80;91.10
2100;DHT22;1055;48.854;9.302;2024-03-08T15:09:55;14.20;90.50
2100;DHT22;1055;48.854;9.302;2024-03-08T15:12:23;15.00;89.80
2100;DHT22;1055;48.854;9.302;2024-03-08T15:14:52;14.30;88.90
2100;DHT22;1055;48.854;9.302;2024-03-08T15:17:18;13.90;90.00
2100;DHT22;1055;48.854;9.302;2024-03-08T15:19:49;13.60;89.20
2100;DHT22;1055;48.854;9.302;2024-03-08T15:22:16;14.00;90.40
2100;DHT22;1055;48.854;9.302;2024-03-08T15:24:44;13.70;89.00
2100;DHT22;1055;48.854;9.302;2024-03-08T15:27:09;13.60;90.30
2100;DHT22;1055;48.854;9.302;2024-03-08T15:29:35;14.00;90.20
2100;DHT22;1055;48.854;9.302;2024-03-08T15:32:01;13.00;90.00
2100;DHT22;1055;48.854;9.302;2024-03-08T15:34:28;13.50;91.00
2100;DHT22;1055;48.854;9.302;2024-03-08T15:36:53;14.10;89.80
2100;DHT22;1055;48.854;9.302;2024-03-08T15:39:19;13.20;89.00
2100;DHT22;1055;48.854;9.302;2024-03-08T15:41:48;13.40;90.30
2100;DHT22;1055;48.854;9.302;2024-03-08T15:44:14;13.30;89.20
2100;DHT22;1055;48.854;9.302;2024-03-08T15:46:41;13.60;89.80
2100;DHT22;1055;48.854;9.302;2024-03-08T15:49:07;14.20;89.60
2100;DHT22;1055;48.854;9.302;2024-03-08T15:51:34;13.90;86.70
2100;DHT22;1055;48.854;9.302;2024-03-08T15:54:02;13.60;88.90
2100;DHT22;1055;48.854;9.302;2024-03-08T15:56:30;13.00;89.80
2100;DHT22;1055;48.854;9.302;2024-03-08T15:58:57;13.00;90.60
2100;DHT22;1055;48.854;9.302;2024-03-08T16:01:22;13.20;91.10
2100;DHT22;1055;48.854;9.302;2024-03-08T16:03:50;12.80;90.70
2100;DHT22;1055;48.854;9.302;2024-03-08T16:06:16;12.90;91.30
2100;DHT22;1055;48.854;9.302;2024-03-08T16:08:47;12.70;91.30
2100;DHT22;1055;48.854;9.302;2024-03-08T16:11:13;13.10;90.90
2100;DHT22;1055;48.854;9.302;2024-03-08T16:13:38;13.60;91.00
2100;DHT22;1055;48.854;9.302;2024-03-08T16:16:04;13.60;90.30